Time;durP1;ratioP1;P1;durP2;ratioP2;P2;SDS_P1;SDS_P2;PMS_P1;PMS_P2;Temp;Humidity;BMP_temperature;BMP_pressure;BME280_temperature;BME280_humidity;BME280_pressure;Samples;Min_cycle;Max_cycle;Signal;HPM_P1;HPM_P2
2023/03/20 00:01:57;;;;;;;14.05;6.15;;;;;;;;;;5011988;28;20084;-59
2023/03/20 00:04:28;;;;;;;15.65;6.18;;;;;;;;;;5012120;28;20950;-58
2023/03/20 00:06:55;;;;;;;19.02;7.07;;;;;;;;;;5013526;28;20034;-57
2023/03/20 00:09:22;;;;;;;16.67;5.88;;;;;;;;;;5011163;28;20048;-59
2023/03/20 00:11:52;;;;;;;15.70;5.47;;;;;;;;;;5012148;28;20062;-57
2023/03/20 00:14:21;;;;;;;11.10;5.22;;;;;;;;;;5010937;28;20494;-59
2023/03/20 00:16:48;;;;;;;19.23;6.07;;;;;;;;;;5010874;28;20057;-57
2023/03/20 00:19:16;;;;;;;12.82;6.03;;;;;;;;;;5009997;28;20548;-59
2023/03/20 00:21:45;;;;;;;16.83;6.50;;;;;;;;;;5010791;28;20030;-59
2023/03/20 00:24:12;;;;;;;12.63;5.97;;;;;;;;;;5012050;28;20041;-59
2023/03/20 00:26:39;;;;;;;15.23;5.38;;;;;;;;;;5011041;28;20427;-58
2023/03/20 00:29:06;;;;;;;14.60;5.80;;;;;;;;;;5010926;28;20030;-61
2023/03/20 00:31:37;;;;;;;15.88;6.22;;;;;;;;;;5010745;28;20219;-61
2023/03/20 00:34:05;;;;;;;17.80;6.03;;;;;;;;;;5012238;28;20188;-58
2023/03/20 00:36:32;;;;;;;17.70;6.40;;;;;;;;;;5010557;28;20026;-58
2023/03/20 00:39:00;;;;;;;14.15;6.28;;;;;;;;;;5009612;28;20060;-60
2023/03/20 00:41:27;;;;;;;15.43;5.55;;;;;;;;;;5023164;28;20060;-59
2023/03/20 00:43:56;;;;;;;17.92;6.03;;;;;;;;;;5011334;28;20038;-59
2023/03/20 00:46:23;;;;;;;19.27;5.72;;;;;;;;;;5011993;28;20041;-62
2023/03/20 00:48:50;;;;;;;14.25;4.65;;;;;;;;;;5011219;28;20060;-58
2023/03/20 00:51:17;;;;;;;9.60;4.47;;;;;;;;;;5011902;28;20098;-58
2023/03/20 00:53:44;;;;;;;12.35;4.55;;;;;;;;;;5012159;28;20068;-57
2023/03/20 00:56:26;;;;;;;9.43;4.00;;;;;;;;;;5011289;28;20050;-57
2023/03/20 00:58:53;;;;;;;11.55;3.95;;;;;;;;;;5009832;28;20399;-57
2023/03/20 01:01:20;;;;;;;10.50;4.10;;;;;;;;;;5010308;28;20033;-61
2023/03/20 01:03:46;;;;;;;14.23;3.92;;;;;;;;;;5010156;28;20041;-62
2023/03/20 01:06:13;;;;;;;11.25;4.30;;;;;;;;;;5011334;28;20029;-58
2023/03/20 01:08:40;;;;;;;12.32;3.95;;;;;;;;;;5023285;28;20481;-59
2023/03/20 01:11:06;;;;;;;10.98;4.10;;;;;;;;;;5013504;28;20038;-58
2023/03/20 01:13:33;;;;;;;9.95;3.95;;;;;;;;;;5010417;28;20055;-61
2023/03/20 01:16:00;;;;;;;10.23;3.90;;;;;;;;;;5011908;28;20038;-62
2023/03/20 01:18:27;;;;;;;9.27;3.72;;;;;;;;;;5009188;28;20073;-59
2023/03/20 01:20:53;;;;;;;8.73;4.28;;;;;;;;;;5010980;28;20046;-60
2023/03/20 01:23:21;;;;;;;13.27;4.72;;;;;;;;;;5008826;28;20125;-58
2023/03/20 01:25:49;;;;;;;12.32;4.53;;;;;;;;;;5009767;28;20037;-59
2023/03/20 01:28:15;;;;;;;14.60;4.97;;;;;;;;;;5009663;28;20042;-57
2023/03/20 01:30:42;;;;;;;13.07;4.82;;;;;;;;;;5009386;28;20049;-61
2023/03/20 01:33:15;;;;;;;21.60;5.90;;;;;;;;;;5009460;28;20174;-61
2023/03/20 01:35:42;;;;;;;13.45;5.20;;;;;;;;;;5011164;28;20840;-59
2023/03/20 01:38:13;;;;;;;14.25;5.38;;;;;;;;;;5028101;28;20053;-57
2023/03/20 01:40:47;;;;;;;18.80;6.15;;;;;;;;;;5013802;28;20041;-58
2023/03/20 01:43:15;;;;;;;15.48;6.35;;;;;;;;;;5014494;28;20068;-57
2023/03/20 01:45:54;;;;;;;22.48;6.72;;;;;;;;;;5013190;28;20049;-57
2023/03/20 01:48:21;;;;;;;17.92;6.57;;;;;;;;;;5013883;28;20041;-56
2023/03/20 01:50:48;;;;;;;21.70;7.13;;;;;;;;;;5014987;28;20477;-57
2023/03/20 01:53:20;;;;;;;15.70;6.85;;;;;;;;;;5016268;28;20045;-57
2023/03/20 01:55:48;;;;;;;22.77;7.82;;;;;;;;;;5015677;28;20037;-58
2023/03/20 01:58:17;;;;;;;26.63;7.97;;;;;;;;;;5014799;28;20061;-59
2023/03/20 02:00:43;;;;;;;20.10;8.07;;;;;;;;;;5028243;28;20043;-59
2023/03/20 02:03:10;;;;;;;19.52;8.38;;;;;;;;;;5017177;28;20506;-58
2023/03/20 02:05:38;;;;;;;27.52;8.90;;;;;;;;;;5014890;28;20037;-60
2023/03/20 02:08:15;;;;;;;21.45;8.52;;;;;;;;;;5016652;28;21772;-61
2023/03/20 02:10:43;;;;;;;17.90;7.47;;;;;;;;;;5015370;28;20042;-59
2023/03/20 02:13:10;;;;;;;23.73;8.23;;;;;;;;;;5015381;28;20060;-61
2023/03/20 02:15:36;;;;;;;19.67;8.10;;;;;;;;;;5014006;28;20042;-56
2023/03/20 02:18:03;;;;;;;20.05;7.78;;;;;;;;;;5014592;28;20056;-56
2023/03/20 02:20:51;;;;;;;25.33;8.80;;;;;;;;;;5011732;28;20759;-55
2023/03/20 02:23:43;;;;;;;20.90;8.75;;;;;;;;;;5014404;28;20113;-57
2023/03/20 02:26:28;;;;;;;25.95;8.93;;;;;;;;;;5012624;28;20073;-58
2023/03/20 02:28:55;;;;;;;26.15;8.63;;;;;;;;;;5013645;28;20045;-58
2023/03/20 02:31:40;;;;;;;19.15;8.30;;;;;;;;;;5015480;28;20073;-57
2023/03/20 02:34:42;;;;;;;15.88;8.60;;;;;;;;;;5026634;28;20042;-58
2023/03/20 02:37:27;;;;;;;20.58;8.60;;;;;;;;;;4989869;28;20066;-59
2023/03/20 02:39:56;;;;;;;23.33;9.38;;;;;;;;;;5012432;28;20124;-60
2023/03/20 02:42:40;;;;;;;23.75;9.45;;;;;;;;;;5026366;28;20120;-58
2023/03/20 02:45:19;;;;;;;22.13;9.82;;;;;;;;;;5014796;28;20049;-60
2023/03/20 02:47:49;;;;;;;15.18;8.30;;;;;;;;;;5026012;28;20057;-58
2023/03/20 02:50:15;;;;;;;18.50;8.55;;;;;;;;;;5013390;28;20068;-59
2023/03/20 02:53:00;;;;;;;22.65;9.32;;;;;;;;;;5015105;28;20343;-60
2023/03/20 02:55:38;;;;;;;19.73;8.05;;;;;;;;;;5012935;28;20054;-57
2023/03/20 02:58:11;;;;;;;30.77;9.25;;;;;;;;;;5013246;28;20060;-57
2023/03/20 03:00:56;;;;;;;26.27;8.75;;;;;;;;;;5012428;28;20037;-60
2023/03/20 03:03:29;;;;;;;20.85;8.80;;;;;;;;;;5014508;28;20513;-62
2023/03/20 03:05:59;;;;;;;10.93;6.57;;;;;;;;;;5014205;28;20045;-60
2023/03/20 03:08:28;;;;;;;24.70;8.82;;;;;;;;;;5012674;28;20041;-60
2023/03/20 03:11:06;;;;;;;16.52;7.93;;;;;;;;;;5014790;28;20037;-58
2023/03/20 03:13:36;;;;;;;20.35;8.05;;;;;;;;;;5012937;28;20478;-60
2023/03/20 03:16:06;;;;;;;21.63;8.38;;;;;;;;;;5014003;28;20056;-58
2023/03/20 03:18:34;;;;;;;26.15;8.90;;;;;;;;;;5011880;28;20466;-60
2023/03/20 03:21:02;;;;;;;23.10;9.43;;;;;;;;;;5011917;28;20116;-57
2023/03/20 03:23:34;;;;;;;22.17;8.90;;;;;;;;;;5011307;28;20515;-58
2023/03/20 03:26:02;;;;;;;28.52;8.88;;;;;;;;;;5011846;28;20152;-64
2023/03/20 03:28:37;;;;;;;25.00;8.70;;;;;;;;;;5010993;28;20812;-57
2023/03/20 03:31:16;;;;;;;23.70;9.57;;;;;;;;;;5013259;28;20051;-58
2023/03/20 03:33:45;;;;;;;23.83;8.80;;;;;;;;;;5012652;28;20152;-58
2023/03/20 03:36:30;;;;;;;21.92;8.50;;;;;;;;;;5012523;28;20506;-59
2023/03/20 03:38:59;;;;;;;26.92;8.90;;;;;;;;;;5010745;28;20523;-60
2023/03/20 03:41:26;;;;;;;18.35;8.48;;;;;;;;;;5011425;28;20041;-59
2023/03/20 03:43:53;;;;;;;29.98;8.65;;;;;;;;;;5013860;28;20047;-58
2023/03/20 03:46:23;;;;;;;22.63;8.15;;;;;;;;;;5010133;28;20049;-59
2023/03/20 03:48:51;;;;;;;29.50;8.20;;;;;;;;;;5010409;28;20528;-59
2023/03/20 03:51:20;;;;;;;20.55;8.30;;;;;;;;;;5011789;28;20069;-58
2023/03/20 03:53:50;;;;;;;21.23;7.90;;;;;;;;;;5012431;28;20041;-60
2023/03/20 03:56:19;;;;;;;20.65;7.57;;;;;;;;;;5012350;28;20394;-58
2023/03/20 03:58:49;;;;;;;21.25;7.35;;;;;;;;;;5010176;28;20825;-60
2023/03/20 04:01:17;;;;;;;23.80;7.60;;;;;;;;;;5010910;28;20045;-57
2023/03/20 04:03:47;;;;;;;20.17;7.40;;;;;;;;;;5010495;28;20045;-58
2023/03/20 04:06:16;;;;;;;19.77;7.90;;;;;;;;;;5010826;28;20041;-58
2023/03/20 04:08:43;;;;;;;20.02;8.10;;;;;;;;;;5011123;28;20049;-60
2023/03/20 04:11:20;;;;;;;21.40;7.93;;;;;;;;;;5011109;28;20045;-58
2023/03/20 04:13:47;;;;;;;18.05;7.75;;;;;;;;;;5013218;28;20033;-58
2023/03/20 04:16:15;;;;;;;20.08;7.95;;;;;;;;;;5012465;28;20137;-59
2023/03/20 04:18:42;;;;;;;21.33;8.57;;;;;;;;;;5009726;28;20053;-60
2023/03/20 04:21:09;;;;;;;20.35;8.48;;;;;;;;;;5011194;28;20048;-62
2023/03/20 04:23:36;;;;;;;21.42;8.35;;;;;;;;;;5010430;28;20049;-61
2023/03/20 04:26:02;;;;;;;30.98;10.48;;;;;;;;;;5010712;28;20029;-58
2023/03/20 04:28:29;;;;;;;24.75;9.20;;;;;;;;;;5010540;28;20124;-64
2023/03/20 04:30:57;;;;;;;17.88;8.57;;;;;;;;;;5010657;28;20201;-62
2023/03/20 04:33:25;;;;;;;22.38;8.82;;;;;;;;;;5011248;28;20308;-62
2023/03/20 04:35:52;;;;;;;25.38;9.00;;;;;;;;;;5011874;28;20446;-59
2023/03/20 04:38:19;;;;;;;28.65;9.40;;;;;;;;;;5010638;28;20092;-59
2023/03/20 04:40:46;;;;;;;21.70;9.05;;;;;;;;;;5011650;28;20045;-60
2023/03/20 04:43:14;;;;;;;24.33;8.80;;;;;;;;;;5011121;28;20041;-59
2023/03/20 04:45:40;;;;;;;28.38;8.52;;;;;;;;;;5010636;28;20041;-59
2023/03/20 04:48:07;;;;;;;24.85;9.25;;;;;;;;;;5010241;28;20541;-62
2023/03/20 04:50:34;;;;;;;28.48;8.98;;;;;;;;;;5011600;28;20076;-59
2023/03/20 04:53:00;;;;;;;23.67;8.25;;;;;;;;;;5012292;28;20050;-58
2023/03/20 04:55:27;;;;;;;28.95;9.38;;;;;;;;;;5011242;28;20046;-56
2023/03/20 04:57:54;;;;;;;20.70;9.05;;;;;;;;;;5010209;28;20056;-57
2023/03/20 05:00:20;;;;;;;22.23;9.20;;;;;;;;;;5011772;28;20442;-57
2023/03/20 05:02:47;;;;;;;23.67;9.15;;;;;;;;;;5010204;28;20143;-57
2023/03/20 05:05:14;;;;;;;19.05;9.00;;;;;;;;;;5011367;28;20056;-61
2023/03/20 05:07:40;;;;;;;25.05;9.27;;;;;;;;;;5009941;28;20061;-57
2023/03/20 05:10:07;;;;;;;27.00;9.20;;;;;;;;;;5010327;28;20034;-58
2023/03/20 05:12:34;;;;;;;25.67;9.27;;;;;;;;;;5009517;28;20432;-56
2023/03/20 05:15:00;;;;;;;22.17;9.10;;;;;;;;;;5010790;28;20037;-56
2023/03/20 05:17:27;;;;;;;28.65;9.23;;;;;;;;;;5010736;28;20053;-57
2023/03/20 05:19:54;;;;;;;38.08;8.85;;;;;;;;;;5010401;28;20576;-59
2023/03/20 05:22:20;;;;;;;29.73;9.23;;;;;;;;;;5010152;28;20042;-59
2023/03/20 05:24:47;;;;;;;21.70;9.32;;;;;;;;;;5011142;28;20522;-58
2023/03/20 05:27:15;;;;;;;23.77;8.93;;;;;;;;;;5009442;28;20052;-56
2023/03/20 05:29:41;;;;;;;26.88;9.68;;;;;;;;;;5009998;28;20037;-58
2023/03/20 05:32:08;;;;;;;23.27;9.32;;;;;;;;;;5010094;28;20450;-58
2023/03/20 05:34:34;;;;;;;13.85;7.95;;;;;;;;;;5010534;28;20140;-59
2023/03/20 05:37:01;;;;;;;22.17;9.20;;;;;;;;;;5011033;28;20041;-58
2023/03/20 05:39:28;;;;;;;24.60;9.45;;;;;;;;;;5008551;28;20061;-59
2023/03/20 05:41:54;;;;;;;26.75;9.43;;;;;;;;;;5010364;28;20053;-58
2023/03/20 05:44:21;;;;;;;23.05;9.63;;;;;;;;;;5010007;28;20977;-59
2023/03/20 05:46:48;;;;;;;21.30;8.80;;;;;;;;;;5010647;28;20041;-60
2023/03/20 05:49:14;;;;;;;30.10;9.27;;;;;;;;;;5009602;28;20041;-60
2023/03/20 05:51:41;;;;;;;21.63;9.32;;;;;;;;;;5009817;28;20103;-58
2023/03/20 05:54:08;;;;;;;26.95;9.18;;;;;;;;;;5012533;28;20160;-59
2023/03/20 05:56:34;;;;;;;28.95;9.40;;;;;;;;;;5010276;28;20037;-60
2023/03/20 05:59:01;;;;;;;29.10;9.68;;;;;;;;;;5010403;28;20148;-58
2023/03/20 06:01:28;;;;;;;25.73;9.50;;;;;;;;;;5009559;28;20037;-58
2023/03/20 06:03:54;;;;;;;28.67;10.65;;;;;;;;;;5010373;28;20113;-59
2023/03/20 06:06:21;;;;;;;26.05;9.77;;;;;;;;;;5009009;28;20064;-59
2023/03/20 06:08:48;;;;;;;21.25;8.82;;;;;;;;;;5010327;28;20048;-59
2023/03/20 06:11:14;;;;;;;20.00;9.90;;;;;;;;;;5008370;28;20045;-60
2023/03/20 06:13:41;;;;;;;31.42;9.75;;;;;;;;;;5009726;28;20045;-56
2023/03/20 06:16:08;;;;;;;23.98;9.73;;;;;;;;;;5009987;28;20108;-58
2023/03/20 06:18:34;;;;;;;29.58;9.95;;;;;;;;;;5008624;28;20053;-58
2023/03/20 06:21:01;;;;;;;28.55;11.05;;;;;;;;;;5009820;28;20549;-58
2023/03/20 06:23:28;;;;;;;26.10;9.40;;;;;;;;;;5012384;28;20033;-60
2023/03/20 06:25:55;;;;;;;27.30;9.95;;;;;;;;;;5013734;28;20037;-59
2023/03/20 06:28:21;;;;;;;28.45;10.23;;;;;;;;;;5012448;28;20778;-60
2023/03/20 06:30:52;;;;;;;30.40;9.68;;;;;;;;;;5014207;28;20034;-59
2023/03/20 06:33:18;;;;;;;35.22;11.02;;;;;;;;;;5025335;28;20052;-58
2023/03/20 06:35:49;;;;;;;35.78;10.73;;;;;;;;;;5012849;28;20069;-61
2023/03/20 06:38:15;;;;;;;23.35;9.88;;;;;;;;;;5012123;28;20057;-60
2023/03/20 06:40:42;;;;;;;24.40;9.68;;;;;;;;;;5025227;28;20048;-61
2023/03/20 06:43:11;;;;;;;27.05;10.18;;;;;;;;;;5013139;28;20123;-58
2023/03/20 06:45:38;;;;;;;26.92;10.05;;;;;;;;;;5013787;28;20702;-58
2023/03/20 06:48:10;;;;;;;26.10;10.32;;;;;;;;;;5014451;28;20042;-61
2023/03/20 06:50:36;;;;;;;18.58;9.25;;;;;;;;;;5012860;28;20064;-59
2023/03/20 06:53:03;;;;;;;24.63;9.98;;;;;;;;;;5011565;28;20062;-59
2023/03/20 06:55:30;;;;;;;25.27;9.35;;;;;;;;;;5013387;28;20553;-58
2023/03/20 06:57:56;;;;;;;31.80;10.57;;;;;;;;;;5011611;28;20184;-58
2023/03/20 07:00:23;;;;;;;25.33;10.63;;;;;;;;;;5012972;28;20037;-55
2023/03/20 07:02:50;;;;;;;25.10;11.57;;;;;;;;;;5012909;28;20838;-59
2023/03/20 07:05:17;;;;;;;31.58;10.88;;;;;;;;;;5013629;28;20057;-59
2023/03/20 07:07:43;;;;;;;25.17;11.10;;;;;;;;;;5012975;28;20041;-59
2023/03/20 07:10:11;;;;;;;19.70;10.27;;;;;;;;;;5011822;28;20038;-60
2023/03/20 07:12:38;;;;;;;26.52;11.57;;;;;;;;;;5008107;28;20068;-58
2023/03/20 07:15:04;;;;;;;26.55;10.80;;;;;;;;;;5038986;28;20076;-57
2023/03/20 07:17:31;;;;;;;28.15;10.52;;;;;;;;;;5012117;28;20640;-57
2023/03/20 07:19:58;;;;;;;27.40;11.27;;;;;;;;;;5011637;28;20508;-59
2023/03/20 07:22:25;;;;;;;23.52;10.82;;;;;;;;;;5011904;28;20025;-59
2023/03/20 07:24:52;;;;;;;31.38;10.48;;;;;;;;;;5013111;28;20072;-59
2023/03/20 07:27:18;;;;;;;23.17;10.68;;;;;;;;;;5013147;28;20048;-59
2023/03/20 07:29:45;;;;;;;22.50;10.15;;;;;;;;;;5012548;28;20061;-60
2023/03/20 07:32:12;;;;;;;24.98;10.82;;;;;;;;;;5012567;28;20445;-59
2023/03/20 07:34:38;;;;;;;25.77;11.40;;;;;;;;;;5011951;28;20050;-60
2023/03/20 07:37:06;;;;;;;25.25;10.55;;;;;;;;;;5011915;28;20144;-60
2023/03/20 07:39:32;;;;;;;21.17;10.70;;;;;;;;;;5010680;28;20164;-60
2023/03/20 07:41:59;;;;;;;32.00;10.05;;;;;;;;;;5013419;28;20049;-59
2023/03/20 07:44:25;;;;;;;27.23;10.25;;;;;;;;;;5010498;28;20091;-60
2023/03/20 07:46:52;;;;;;;31.27;10.05;;;;;;;;;;5012580;28;20037;-61
2023/03/20 07:49:19;;;;;;;25.35;9.75;;;;;;;;;;5011961;28;20049;-59
2023/03/20 07:51:46;;;;;;;22.52;9.75;;;;;;;;;;5011948;28;20055;-59
2023/03/20 07:54:14;;;;;;;24.08;10.00;;;;;;;;;;5012912;28;20037;-59
2023/03/20 07:56:40;;;;;;;26.65;10.10;;;;;;;;;;5010582;28;20448;-60
2023/03/20 07:59:08;;;;;;;29.33;10.75;;;;;;;;;;5011722;28;20128;-60
2023/03/20 08:01:34;;;;;;;25.60;9.05;;;;;;;;;;5011517;28;20033;-58
2023/03/20 08:04:01;;;;;;;30.15;10.63;;;;;;;;;;5012608;28;20033;-58
2023/03/20 08:06:27;;;;;;;24.05;9.80;;;;;;;;;;5010682;28;20064;-58
2023/03/20 08:08:54;;;;;;;19.13;9.48;;;;;;;;;;5011595;28;20046;-59
2023/03/20 08:11:21;;;;;;;27.48;9.40;;;;;;;;;;5012409;28;20672;-58
2023/03/20 08:13:48;;;;;;;23.58;9.00;;;;;;;;;;5010713;28;20081;-58
2023/03/20 08:16:14;;;;;;;20.98;8.82;;;;;;;;;;5015171;28;20440;-58
2023/03/20 08:18:41;;;;;;;27.98;10.10;;;;;;;;;;5017829;28;20049;-59
2023/03/20 08:21:08;;;;;;;22.40;9.55;;;;;;;;;;5020193;28;20061;-58
2023/03/20 08:23:35;;;;;;;26.50;10.15;;;;;;;;;;5020808;28;20459;-58
2023/03/20 08:26:02;;;;;;;22.48;9.55;;;;;;;;;;5024890;28;20033;-60
2023/03/20 08:28:28;;;;;;;20.50;9.45;;;;;;;;;;5025752;28;20065;-58
2023/03/20 08:30:55;;;;;;;18.83;9.65;;;;;;;;;;5018252;28;20041;-58
2023/03/20 08:33:21;;;;;;;22.73;8.40;;;;;;;;;;5018925;28;20045;-59
2023/03/20 08:35:58;;;;;;;32.95;9.98;;;;;;;;;;5016007;28;20546;-61
2023/03/20 08:38:24;;;;;;;26.48;9.07;;;;;;;;;;5012156;28;20073;-59
2023/03/20 08:40:51;;;;;;;23.73;9.38;;;;;;;;;;5011712;28;20133;-59
2023/03/20 08:43:18;;;;;;;24.77;9.65;;;;;;;;;;5012710;28;20037;-59
2023/03/20 08:45:44;;;;;;;20.58;9.30;;;;;;;;;;5003464;28;20049;-59
2023/03/20 08:48:11;;;;;;;20.10;9.40;;;;;;;;;;5011431;28;20114;-60
2023/03/20 08:50:38;;;;;;;21.33;9.77;;;;;;;;;;5010346;28;20110;-60
2023/03/20 08:53:05;;;;;;;25.92;9.25;;;;;;;;;;5011038;28;20119;-61
2023/03/20 08:55:32;;;;;;;17.30;8.80;;;;;;;;;;5010091;28;20041;-60
2023/03/20 08:57:59;;;;;;;26.15;10.10;;;;;;;;;;5011001;28;20698;-60
2023/03/20 09:00:26;;;;;;;24.85;9.80;;;;;;;;;;5010930;28;21783;-57
2023/03/20 09:02:53;;;;;;;28.50;10.52;;;;;;;;;;5010837;28;20277;-59
2023/03/20 09:05:19;;;;;;;32.92;9.73;;;;;;;;;;5012353;28;20088;-60
2023/03/20 09:07:46;;;;;;;24.70;10.48;;;;;;;;;;5010865;28;20045;-58
2023/03/20 09:10:13;;;;;;;20.90;9.52;;;;;;;;;;5011138;28;20624;-63
2023/03/20 09:12:40;;;;;;;20.23;9.75;;;;;;;;;;5009857;28;20052;-59
2023/03/20 09:15:07;;;;;;;27.73;10.63;;;;;;;;;;5010595;28;20494;-58
2023/03/20 09:17:34;;;;;;;27.95;10.68;;;;;;;;;;5010492;28;20437;-58
2023/03/20 09:20:00;;;;;;;25.45;10.52;;;;;;;;;;5008493;28;20422;-58
2023/03/20 09:22:27;;;;;;;22.08;10.40;;;;;;;;;;5009834;28;20133;-59
2023/03/20 09:24:54;;;;;;;27.20;11.73;;;;;;;;;;5011927;28;20041;-59
2023/03/20 09:27:22;;;;;;;28.15;11.93;;;;;;;;;;5010418;28;20048;-58
2023/03/20 09:29:49;;;;;;;29.05;10.88;;;;;;;;;;5012007;28;20037;-60
2023/03/20 09:32:15;;;;;;;27.70;11.35;;;;;;;;;;5010624;28;20041;-60
2023/03/20 09:34:42;;;;;;;27.63;11.05;;;;;;;;;;5009571;28;20402;-58
2023/03/20 09:37:09;;;;;;;30.73;11.30;;;;;;;;;;5011504;28;20045;-60
2023/03/20 09:39:36;;;;;;;33.42;12.05;;;;;;;;;;5009710;28;20073;-58
2023/03/20 09:42:10;;;;;;;23.55;11.07;;;;;;;;;;5011133;28;20112;-59
2023/03/20 09:44:37;;;;;;;28.05;12.60;;;;;;;;;;5010702;28;20046;-59
2023/03/20 09:47:10;;;;;;;32.28;10.82;;;;;;;;;;5010628;28;20557;-58
2023/03/20 09:49:53;;;;;;;21.85;11.05;;;;;;;;;;5009569;28;20049;-58
2023/03/20 09:52:27;;;;;;;28.05;11.07;;;;;;;;;;5008569;28;20582;-61
2023/03/20 09:54:55;;;;;;;31.45;12.43;;;;;;;;;;5010558;28;20973;-58
2023/03/20 09:57:42;;;;;;;17.85;10.18;;;;;;;;;;5011436;28;20042;-58
2023/03/20 10:00:17;;;;;;;26.48;11.45;;;;;;;;;;5013558;28;20193;-56
2023/03/20 10:02:44;;;;;;;25.85;10.65;;;;;;;;;;5014181;28;20555;-60
2023/03/20 10:05:19;;;;;;;20.55;10.45;;;;;;;;;;5014677;28;20087;-60
2023/03/20 10:07:46;;;;;;;24.50;11.65;;;;;;;;;;5013544;28;20068;-58
2023/03/20 10:10:14;;;;;;;25.15;10.43;;;;;;;;;;5014773;28;20372;-61
2023/03/20 10:12:47;;;;;;;24.92;11.10;;;;;;;;;;5013128;28;20034;-57
2023/03/20 10:15:32;;;;;;;21.48;10.82;;;;;;;;;;5014258;28;20041;-56
2023/03/20 10:18:17;;;;;;;21.02;11.27;;;;;;;;;;5012477;28;20064;-57
2023/03/20 10:21:12;;;;;;;25.42;10.48;;;;;;;;;;5013533;28;20034;-61
2023/03/20 10:24:02;;;;;;;26.65;10.40;;;;;;;;;;5011317;28;20045;-60
2023/03/20 10:26:31;;;;;;;29.17;11.82;;;;;;;;;;5012466;28;20103;-60
2023/03/20 10:29:24;;;;;;;24.52;9.98;;;;;;;;;;5013708;28;20051;-62
2023/03/20 10:31:55;;;;;;;31.27;10.50;;;;;;;;;;5000381;28;20038;-59
2023/03/20 10:34:40;;;;;;;26.50;11.02;;;;;;;;;;5019384;28;20055;-58
2023/03/20 10:37:16;;;;;;;30.02;10.57;;;;;;;;;;5017805;28;20042;-58
2023/03/20 10:39:48;;;;;;;23.85;10.80;;;;;;;;;;5017256;28;20051;-57
2023/03/20 10:42:22;;;;;;;37.22;10.85;;;;;;;;;;5015801;28;20041;-57
2023/03/20 10:44:55;;;;;;;32.65;11.27;;;;;;;;;;5014727;28;20104;-58
2023/03/20 10:47:23;;;;;;;27.52;11.43;;;;;;;;;;5015613;28;20037;-57
2023/03/20 10:49:54;;;;;;;28.60;11.73;;;;;;;;;;5014578;28;20059;-61
2023/03/20 10:52:25;;;;;;;23.67;10.93;;;;;;;;;;5014259;28;20037;-59
2023/03/20 10:54:57;;;;;;;25.70;10.65;;;;;;;;;;5028284;28;20065;-57
2023/03/20 10:57:25;;;;;;;27.05;11.35;;;;;;;;;;5014508;28;20064;-59
2023/03/20 10:59:52;;;;;;;25.48;11.38;;;;;;;;;;5016480;28;20143;-56
2023/03/20 11:02:21;;;;;;;29.60;11.48;;;;;;;;;;5016518;28;20489;-58
2023/03/20 11:04:47;;;;;;;30.17;11.57;;;;;;;;;;5016357;28;20038;-61
2023/03/20 11:07:28;;;;;;;22.67;10.50;;;;;;;;;;5016642;28;20195;-57
2023/03/20 11:10:06;;;;;;;21.63;10.13;;;;;;;;;;5014014;28;20048;-57
2023/03/20 11:12:35;;;;;;;21.20;10.30;;;;;;;;;;5014027;28;20052;-59
2023/03/20 11:15:21;;;;;;;21.58;9.80;;;;;;;;;;5014137;28;20037;-59
2023/03/20 11:17:53;;;;;;;25.17;10.70;;;;;;;;;;5011650;28;20144;-59
2023/03/20 11:20:20;;;;;;;24.23;10.15;;;;;;;;;;5027976;28;20029;-59
2023/03/20 11:22:47;;;;;;;29.40;9.48;;;;;;;;;;5012888;28;20033;-59
2023/03/20 11:25:25;;;;;;;28.02;9.63;;;;;;;;;;5012496;28;20030;-60
2023/03/20 11:27:55;;;;;;;35.88;10.68;;;;;;;;;;5013282;28;20430;-56
2023/03/20 11:30:21;;;;;;;19.13;9.18;;;;;;;;;;5011682;28;20521;-58
2023/03/20 11:32:49;;;;;;;20.95;8.23;;;;;;;;;;5012435;28;20513;-59
2023/03/20 11:35:21;;;;;;;21.88;8.63;;;;;;;;;;5013396;28;20052;-57
2023/03/20 11:37:49;;;;;;;23.40;8.30;;;;;;;;;;5024993;28;20560;-56
2023/03/20 11:40:21;;;;;;;14.38;8.00;;;;;;;;;;5019676;28;20034;-58
2023/03/20 11:42:56;;;;;;;20.38;9.00;;;;;;;;;;5013718;28;20026;-58
2023/03/20 11:45:24;;;;;;;20.83;9.60;;;;;;;;;;5011710;28;20091;-57
2023/03/20 11:47:52;;;;;;;27.08;9.48;;;;;;;;;;5011705;28;20048;-62
2023/03/20 11:50:35;;;;;;;27.42;8.20;;;;;;;;;;5012288;28;20053;-62
2023/03/20 11:53:02;;;;;;;17.60;7.68;;;;;;;;;;5012286;28;20068;-57
2023/03/20 11:55:33;;;;;;;16.40;7.47;;;;;;;;;;5011844;28;20041;-58
2023/03/20 11:58:01;;;;;;;18.17;7.97;;;;;;;;;;5011088;28;20106;-58
2023/03/20 12:00:37;;;;;;;25.08;9.07;;;;;;;;;;5012315;28;20434;-60
2023/03/20 12:03:04;;;;;;;16.55;7.85;;;;;;;;;;5012714;28;20118;-58
2023/03/20 12:05:32;;;;;;;17.30;8.05;;;;;;;;;;5012395;28;20124;-59
2023/03/20 12:08:19;;;;;;;15.13;7.25;;;;;;;;;;5012193;28;20049;-61
2023/03/20 12:10:51;;;;;;;18.20;7.75;;;;;;;;;;5012847;28;20045;-57
2023/03/20 12:13:39;;;;;;;21.77;7.80;;;;;;;;;;5012790;28;20103;-61
2023/03/20 12:16:27;;;;;;;13.73;7.65;;;;;;;;;;5011820;28;20564;-60
2023/03/20 12:19:01;;;;;;;22.52;7.95;;;;;;;;;;5011548;28;20049;-59
2023/03/20 12:22:07;;;;;;;11.85;6.70;;;;;;;;;;5010319;28;20072;-60
2023/03/20 12:24:38;;;;;;;17.63;6.53;;;;;;;;;;4986419;28;20041;-60
2023/03/20 12:27:07;;;;;;;17.85;6.78;;;;;;;;;;4987646;28;20653;-60
2023/03/20 12:29:47;;;;;;;17.08;6.97;;;;;;;;;;4999990;28;20050;-58
2023/03/20 12:32:22;;;;;;;15.80;6.68;;;;;;;;;;5012508;28;20049;-59
2023/03/20 12:34:55;;;;;;;17.00;8.13;;;;;;;;;;5011626;28;20305;-61
2023/03/20 12:37:21;;;;;;;;;;;;;;;;;;5010514;28;20041;-61
2023/03/20 12:39:53;;;;;;;16.70;6.72;;;;;;;;;;5011444;28;19983;-60
2023/03/20 12:42:23;;;;;;;24.10;7.65;;;;;;;;;;5009871;28;20053;-62
2023/03/20 12:44:57;;;;;;;17.13;7.78;;;;;;;;;;5025352;28;20085;-61
2023/03/20 12:47:31;;;;;;;22.85;8.93;;;;;;;;;;5012411;28;20091;-60
2023/03/20 12:50:16;;;;;;;21.48;7.97;;;;;;;;;;5011476;28;20049;-58
2023/03/20 12:52:52;;;;;;;20.02;8.27;;;;;;;;;;5012093;28;20057;-62
2023/03/20 12:55:19;;;;;;;32.50;7.88;;;;;;;;;;5013719;28;20025;-60
2023/03/20 12:58:01;;;;;;;24.13;8.10;;;;;;;;;;5010570;28;20051;-60
2023/03/20 13:00:37;;;;;;;25.10;7.97;;;;;;;;;;5011594;28;20048;-60
2023/03/20 13:03:09;;;;;;;18.75;8.60;;;;;;;;;;5012326;28;20046;-60
2023/03/20 13:05:47;;;;;;;33.00;8.70;;;;;;;;;;5010889;28;20486;-63
2023/03/20 13:08:26;;;;;;;34.30;8.38;;;;;;;;;;5010937;28;20034;-59
2023/03/20 13:11:16;;;;;;;19.25;7.95;;;;;;;;;;5010664;28;20529;-59
2023/03/20 13:13:57;;;;;;;16.92;8.05;;;;;;;;;;5017323;28;20046;-61
2023/03/20 13:16:24;;;;;;;18.45;8.35;;;;;;;;;;5031981;28;20036;-60
2023/03/20 13:18:54;;;;;;;25.60;7.93;;;;;;;;;;5011034;28;20057;-59
2023/03/20 13:21:44;;;;;;;22.65;8.13;;;;;;;;;;5011449;28;20041;-59
2023/03/20 13:24:30;;;;;;;30.13;8.88;;;;;;;;;;5008040;28;20144;-60
2023/03/20 13:27:15;;;;;;;19.35;7.28;;;;;;;;;;5009961;28;20072;-58
2023/03/20 13:29:50;;;;;;;31.90;8.60;;;;;;;;;;5009585;28;20038;-61
2023/03/20 13:32:25;;;;;;;25.38;9.52;;;;;;;;;;5012937;28;20033;-61
2023/03/20 13:35:05;;;;;;;26.13;8.95;;;;;;;;;;5016156;28;20061;-60
2023/03/20 13:37:34;;;;;;;36.88;8.68;;;;;;;;;;5013748;28;20053;-61
2023/03/20 13:40:01;;;;;;;21.17;8.82;;;;;;;;;;5015414;28;21866;-62
2023/03/20 13:42:34;;;;;;;23.55;8.75;;;;;;;;;;5015059;28;20044;-61
2023/03/20 13:45:05;;;;;;;28.13;10.02;;;;;;;;;;5015041;28;20077;-59
2023/03/20 13:47:33;;;;;;;26.98;8.82;;;;;;;;;;5013239;28;20037;-59
2023/03/20 13:50:19;;;;;;;29.15;9.55;;;;;;;;;;5014058;28;20152;-60
2023/03/20 13:52:49;;;;;;;13.05;6.55;;;;;;;;;;5014458;28;20053;-60
2023/03/20 13:55:22;;;;;;;16.23;7.22;;;;;;;;;;5015359;28;20045;-59
2023/03/20 13:57:48;;;;;;;8.05;4.55;;;;;;;;;;5014208;28;20518;-59
2023/03/20 14:00:27;;;;;;;13.13;6.35;;;;;;;;;;5014681;28;20045;-60
2023/03/20 14:03:18;;;;;;;22.48;7.65;;;;;;;;;;5013996;28;20656;-59
2023/03/20 14:05:45;;;;;;;19.80;6.95;;;;;;;;;;5013387;28;20329;-59
2023/03/20 14:08:29;;;;;;;31.20;8.02;;;;;;;;;;5013796;28;20071;-59
2023/03/20 14:10:55;;;;;;;;;;;;;;;;;;5011954;28;20120;-60
2023/03/20 14:13:22;;;;;;;19.40;6.50;;;;;;;;;;5010476;28;19928;-61
2023/03/20 14:15:54;;;;;;;25.08;6.43;;;;;;;;;;5013711;28;20072;-60
2023/03/20 14:18:22;;;;;;;14.27;5.50;;;;;;;;;;5012160;28;20188;-58
2023/03/20 14:20:57;;;;;;;24.52;8.27;;;;;;;;;;5012180;28;20072;-60
2023/03/20 14:23:32;;;;;;;21.65;7.60;;;;;;;;;;5013713;28;20034;-60
2023/03/20 14:25:59;;;;;;;19.25;7.43;;;;;;;;;;5013225;28;20822;-60
2023/03/20 14:28:30;;;;;;;33.03;7.82;;;;;;;;;;5011869;28;20038;-60
2023/03/20 14:31:21;;;;;;;39.00;8.57;;;;;;;;;;5013407;28;20154;-61
2023/03/20 14:33:52;;;;;;;19.83;7.25;;;;;;;;;;5012439;28;20038;-60
2023/03/20 14:36:26;;;;;;;31.23;8.02;;;;;;;;;;5016737;28;20065;-63
2023/03/20 14:38:53;;;;;;;29.60;7.28;;;;;;;;;;5016575;28;20056;-61
2023/03/20 14:41:22;;;;;;;34.92;8.02;;;;;;;;;;5017429;28;20042;-60
2023/03/20 14:43:57;;;;;;;19.15;8.40;;;;;;;;;;5016364;28;21541;-61
2023/03/20 14:46:26;;;;;;;24.65;7.53;;;;;;;;;;5016629;28;20087;-60
2023/03/20 14:48:54;;;;;;;22.33;7.30;;;;;;;;;;5013931;28;20052;-62